Time;durP1;ratioP1;P1;durP2;ratioP2;P2;SDS_P1;SDS_P2;PMS_P1;PMS_P2;Temp;Humidity;BMP_temperature;BMP_pressure;BME280_temperature;BME280_humidity;BME280_pressure;Samples;Min_cycle;Max_cycle;Signal;HPM_P1;HPM_P2
2021/11/08 00:00:12;;;;;;;5.03;4.57;;;;;;;6.71;100.00;153083.97;5034821;28;20443;-79
2021/11/08 00:02:49;;;;;;;7.60;5.57;;;;;;;6.70;100.00;153082.66;5035801;28;20926;-79
2021/11/08 00:05:25;;;;;;;9.07;5.47;;;;;;;6.70;100.00;153081.38;5051051;28;20833;-79
2021/11/08 00:08:02;;;;;;;8.47;4.90;;;;;;;6.69;100.00;153078.81;5051331;28;20450;-79
2021/11/08 00:10:38;;;;;;;10.37;5.40;;;;;;;6.69;100.00;153078.81;5029371;28;20448;-79
2021/11/08 00:13:15;;;;;;;10.23;5.77;;;;;;;6.71;100.00;153085.28;5034404;28;20942;-79
2021/11/08 00:15:58;;;;;;;8.03;5.60;;;;;;;6.72;100.00;153087.81;5033975;28;20443;-79
2021/11/08 00:18:40;;;;;;;5.90;5.30;;;;;;;6.72;100.00;153087.81;5052219;28;20444;-79
2021/11/08 00:21:18;;;;;;;9.53;5.97;;;;;;;6.72;100.00;153086.56;5033672;28;20853;-79
2021/11/08 00:23:54;;;;;;;9.33;5.97;;;;;;;6.71;100.00;153085.28;5036029;28;20428;-79
2021/11/08 00:26:29;;;;;;;10.93;5.80;;;;;;;6.70;100.00;153082.66;5018910;28;20850;-79
2021/11/08 00:29:05;;;;;;;9.77;6.27;;;;;;;6.74;100.00;153091.72;5018807;28;20534;-79
2021/11/08 00:31:40;;;;;;;11.77;6.33;;;;;;;6.71;100.00;153083.97;5066808;28;20443;-79
2021/11/08 00:34:18;;;;;;;9.57;6.10;;;;;;;6.69;100.00;153078.81;5034929;28;20753;-79
2021/11/08 00:36:53;;;;;;;10.67;5.77;;;;;;;6.68;100.00;153076.22;5033825;28;20456;-79
2021/11/08 00:39:29;;;;;;;9.90;6.03;;;;;;;6.61;100.00;153059.47;5034647;28;20455;-79
2021/11/08 00:42:05;;;;;;;10.97;6.87;;;;;;;6.53;100.00;153037.50;5064315;28;20446;-79
2021/11/08 00:44:41;;;;;;;7.17;5.40;;;;;;;6.52;100.00;153034.91;5035769;28;20440;-79
2021/11/08 00:47:17;;;;;;;7.87;5.10;;;;;;;6.48;100.00;153024.63;5034669;28;20926;-79
2021/11/08 00:49:54;;;;;;;6.17;5.57;;;;;;;6.46;100.00;153020.72;5033186;28;20447;-79
2021/11/08 00:52:29;;;;;;;7.83;5.50;;;;;;;6.44;100.00;153014.28;5033736;28;20456;-78
2021/11/08 00:55:06;;;;;;;7.87;5.47;;;;;;;6.38;100.00;152998.81;5034960;28;20771;-79
2021/11/08 00:57:43;;;;;;;7.53;4.87;;;;;;;6.32;100.00;152984.63;5033152;28;20447;-79
2021/11/08 01:00:24;;;;;;;12.97;6.30;;;;;;;6.31;100.00;152980.72;5033424;28;20440;-79
2021/11/08 01:03:03;;;;;;;7.33;5.13;;;;;;;6.28;100.00;152972.97;5033618;28;20448;-79
2021/11/08 01:05:40;;;;;;;7.43;5.57;;;;;;;6.26;100.00;152967.81;5033351;28;20468;-79
2021/11/08 01:08:16;;;;;;;8.83;5.90;;;;;;;6.20;100.00;152952.31;5033024;28;20452;-79
2021/11/08 01:10:53;;;;;;;8.53;5.40;;;;;;;6.17;100.00;152944.63;5015812;28;20443;-79
2021/11/08 01:13:29;;;;;;;9.20;5.77;;;;;;;6.12;100.00;152934.28;5033450;28;20569;-79
2021/11/08 01:16:05;;;;;;;7.70;5.60;;;;;;;6.09;100.00;152926.53;5034001;28;20577;-79
2021/11/08 01:18:40;;;;;;;6.20;4.50;;;;;;;6.08;100.00;152922.69;5033166;28;20448;-79
2021/11/08 01:21:17;;;;;;;9.83;5.93;;;;;;;6.02;100.00;152907.19;5034419;28;20801;-79
2021/11/08 01:23:53;;;;;;;7.97;4.60;;;;;;;5.98;100.00;152898.16;5033211;28;20448;-79
2021/11/08 01:26:29;;;;;;;6.40;5.37;;;;;;;5.95;100.00;152889.16;5033238;28;21024;-78
2021/11/08 01:29:05;;;;;;;5.73;5.17;;;;;;;5.87;100.00;152869.81;5033083;28;20435;-79
2021/11/08 01:31:41;;;;;;;8.43;4.97;;;;;;;5.83;100.00;152859.41;5033683;28;20444;-79
2021/11/08 01:34:16;;;;;;;7.70;5.20;;;;;;;5.81;100.00;152854.28;5033252;28;20479;-79
2021/11/08 01:36:55;;;;;;;9.87;4.90;;;;;;;5.77;100.00;152843.94;5022826;28;20887;-79
2021/11/08 01:39:33;;;;;;;6.53;5.57;;;;;;;5.73;100.00;152833.63;5032815;28;20456;-79
2021/11/08 01:42:10;;;;;;;6.27;4.70;;;;;;;5.66;100.00;152815.59;5033645;28;20526;-78
2021/11/08 01:44:46;;;;;;;7.30;5.80;;;;;;;5.60;100.00;152800.09;5033991;28;20786;-79
2021/11/08 01:47:21;;;;;;;8.37;4.93;;;;;;;5.57;100.00;152791.06;5016140;28;20443;-79
2021/11/08 01:49:57;;;;;;;4.83;4.33;;;;;;;5.49;100.00;152771.72;5033486;28;20887;-79
2021/11/08 01:52:33;;;;;;;10.73;5.30;;;;;;;5.45;100.00;152761.44;5012750;28;20477;-79
2021/11/08 01:55:09;;;;;;;6.30;4.93;;;;;;;5.40;100.00;152749.81;5029571;28;20819;-78
2021/11/08 01:57:45;;;;;;;6.60;5.00;;;;;;;5.38;100.00;152744.66;5034578;28;20459;-79
2021/11/08 02:00:22;;;;;;;8.17;5.47;;;;;;;5.33;100.00;152731.78;5033488;28;20448;-79
2021/11/08 02:02:57;;;;;;;7.00;5.60;;;;;;;5.29;100.00;152721.47;5049051;28;20447;-79
2021/11/08 02:05:33;;;;;;;6.23;5.57;;;;;;;5.20;100.00;152696.94;5045075;28;21287;-79
2021/11/08 02:08:10;;;;;;;9.00;5.00;;;;;;;5.15;100.00;152684.06;5053331;28;20438;-78
2021/11/08 02:10:46;;;;;;;6.73;5.30;;;;;;;5.08;100.00;152666.03;5047052;28;20855;-79
2021/11/08 02:13:22;;;;;;;8.60;5.60;;;;;;;5.07;100.00;152663.44;5035526;28;20544;-78
2021/11/08 02:15:58;;;;;;;7.13;5.70;;;;;;;5.02;100.00;152650.56;5035724;28;20451;-78
2021/11/08 02:18:34;;;;;;;8.00;4.77;;;;;;;4.99;100.00;152642.81;5037580;28;20478;-79
2021/11/08 02:21:12;;;;;;;7.17;5.00;;;;;;;4.96;100.00;152635.06;5059434;28;20407;-78
2021/11/08 02:23:48;;;;;;;7.43;5.73;;;;;;;4.91;100.00;152624.78;5037574;28;20467;-79
2021/11/08 02:26:24;;;;;;;6.17;4.83;;;;;;;4.89;100.00;152618.34;5035150;28;20533;-79
2021/11/08 02:29:00;;;;;;;7.47;4.90;;;;;;;4.85;100.00;152608.03;5034537;28;20486;-79
2021/11/08 02:31:36;;;;;;;6.40;5.17;;;;;;;4.85;100.00;152608.03;5035147;28;20515;-79
2021/11/08 02:34:12;;;;;;;6.90;5.30;;;;;;;4.84;100.00;152606.72;5053498;28;20506;-78
2021/11/08 02:36:49;;;;;;;6.23;5.27;;;;;;;4.81;100.00;152599.03;5035020;28;20804;-78
2021/11/08 02:39:30;;;;;;;11.03;5.33;;;;;;;4.80;100.00;152596.44;5034512;28;20454;-79
2021/11/08 02:42:06;;;;;;;6.13;4.97;;;;;;;4.77;100.00;152588.69;5034873;28;20427;-79
2021/11/08 02:44:42;;;;;;;8.20;5.70;;;;;;;4.73;100.00;152577.13;5035063;28;20442;-79
2021/11/08 02:47:18;;;;;;;8.17;5.47;;;;;;;4.65;100.00;152556.50;5052306;28;20439;-79
2021/11/08 02:49:55;;;;;;;9.73;5.77;;;;;;;4.63;100.00;152551.34;5067802;28;20490;-79
2021/11/08 02:52:32;;;;;;;7.73;5.73;;;;;;;4.59;100.00;152542.31;5035004;28;20435;-79
2021/11/08 02:55:08;;;;;;;7.70;5.40;;;;;;;4.57;100.00;152537.19;5034801;28;20538;-79
2021/11/08 02:57:43;;;;;;;9.30;5.70;;;;;;;4.54;100.00;152528.13;5052329;28;20446;-79
2021/11/08 03:00:21;;;;;;;12.77;5.70;;;;;;;4.52;100.00;152524.28;5034436;28;20496;-79
2021/11/08 03:02:57;;;;;;;9.13;5.50;;;;;;;4.51;100.00;152520.41;5034236;28;20458;-78
2021/11/08 03:05:35;;;;;;;6.30;5.03;;;;;;;4.48;100.00;152512.66;5034533;28;20481;-78
2021/11/08 03:08:12;;;;;;;6.77;5.53;;;;;;;4.46;100.00;152508.81;5034703;28;20481;-79
2021/11/08 03:10:54;;;;;;;4.93;4.27;;;;;;;4.43;100.00;152501.09;5031354;28;20465;-78
2021/11/08 03:13:33;;;;;;;8.47;5.13;;;;;;;4.41;100.00;152495.94;5052674;28;20933;-79
2021/11/08 03:16:17;;;;;;;8.00;5.37;;;;;;;4.38;100.00;152486.91;5019126;28;20431;-78
2021/11/08 03:18:58;;;;;;;6.47;4.57;;;;;;;4.34;100.00;152477.94;5034220;28;20447;-78
2021/11/08 03:21:34;;;;;;;5.37;4.73;;;;;;;4.31;100.00;152470.19;5033966;28;20435;-79
2021/11/08 03:24:15;;;;;;;10.57;5.90;;;;;;;4.27;100.00;152459.88;5031493;28;20450;-78
2021/11/08 03:26:54;;;;;;;7.60;5.63;;;;;;;4.22;100.00;152448.28;5036077;28;20415;-79
2021/11/08 03:29:30;;;;;;;6.57;5.23;;;;;;;4.19;100.00;152439.25;5034184;28;20474;-79
2021/11/08 03:32:07;;;;;;;7.07;5.03;;;;;;;4.17;100.00;152434.13;5052387;28;20411;-78
2021/11/08 03:34:48;;;;;;;6.60;5.10;;;;;;;4.16;100.00;152431.53;5034436;28;20481;-78
2021/11/08 03:37:24;;;;;;;6.67;4.43;;;;;;;4.13;100.00;152423.84;5034059;28;20786;-78
2021/11/08 03:40:00;;;;;;;7.10;4.97;;;;;;;4.13;100.00;152425.09;5033418;28;20545;-78
2021/11/08 03:42:36;;;;;;;7.70;4.57;;;;;;;4.13;100.00;152423.84;5052196;28;20447;-79
2021/11/08 03:45:12;;;;;;;9.97;5.30;;;;;;;4.12;100.00;152422.53;5035773;28;20879;-79
2021/11/08 03:47:47;;;;;;;9.23;5.13;;;;;;;4.12;100.00;152421.25;5052368;28;20458;-78
2021/11/08 03:50:23;;;;;;;7.80;5.30;;;;;;;4.11;100.00;152418.66;5050607;28;20442;-78
2021/11/08 03:52:59;;;;;;;6.40;4.77;;;;;;;4.09;100.00;152414.81;5019013;28;20450;-78
2021/11/08 03:55:36;;;;;;;12.93;5.87;;;;;;;4.08;100.00;152410.91;5052034;28;20412;-78
2021/11/08 03:58:11;;;;;;;9.23;5.00;;;;;;;4.07;100.00;152409.66;5033673;28;20454;-78
2021/11/08 04:00:47;;;;;;;11.03;5.40;;;;;;;4.07;100.00;152408.38;5051299;28;20802;-78
2021/11/08 04:03:23;;;;;;;7.40;5.50;;;;;;;4.05;100.00;152403.22;5052487;28;20438;-78
2021/11/08 04:05:59;;;;;;;7.20;4.50;;;;;;;4.01;100.00;152394.19;5033917;28;20470;-79
2021/11/08 04:08:34;;;;;;;7.47;4.50;;;;;;;4.00;100.00;152390.31;5018690;28;20454;-79
2021/11/08 04:11:12;;;;;;;8.20;5.83;;;;;;;3.98;100.00;152385.16;5048977;28;20790;-79
2021/11/08 04:13:47;;;;;;;9.03;5.53;;;;;;;3.97;100.00;152383.88;5037638;28;20462;-79
2021/11/08 04:16:24;;;;;;;6.27;4.50;;;;;;;3.91;100.00;152368.47;5037518;28;20442;-79
2021/11/08 04:19:01;;;;;;;7.27;5.30;;;;;;;3.91;100.00;152367.16;5055116;28;20442;-79
2021/11/08 04:21:37;;;;;;;6.70;4.40;;;;;;;3.91;100.00;152368.47;5055570;28;20423;-79
2021/11/08 04:24:13;;;;;;;14.00;4.93;;;;;;;3.91;100.00;152368.47;5055843;28;20533;-79
2021/11/08 04:26:50;;;;;;;7.03;4.73;;;;;;;3.88;100.00;152359.44;5054175;28;20791;-79
2021/11/08 04:29:25;;;;;;;9.77;5.30;;;;;;;3.85;100.00;152353.00;5055163;28;21012;-79
2021/11/08 04:32:01;;;;;;;13.57;5.20;;;;;;;3.82;100.00;152343.97;5022102;28;20945;-78
2021/11/08 04:34:43;;;;;;;8.43;5.00;;;;;;;3.79;100.00;152336.22;5037074;28;20875;-79
2021/11/08 04:37:37;;;;;;;6.53;4.67;;;;;;;3.74;100.00;152324.66;5037125;28;20841;-79
2021/11/08 04:40:19;;;;;;;7.60;4.83;;;;;;;3.71;100.00;152316.91;5054810;28;20423;-79
2021/11/08 04:43:02;;;;;;;6.00;4.70;;;;;;;3.67;100.00;152307.94;5055018;28;20434;-79
2021/11/08 04:51:47;;;;;;;9.03;5.10;;;;;;;3.65;100.00;152301.50;5025831;28;20534;-79
2021/11/08 04:54:31;;;;;;;9.00;4.50;;;;;;;3.62;100.00;152295.06;5037003;28;20467;-79
2021/11/08 05:23:20;;;;;;;9.10;5.70;;;;;;;3.48;100.00;152257.72;5036135;28;20449;-79
2021/11/08 05:31:39;;;;;;;5.80;5.03;;;;;;;3.52;100.00;152269.28;5036141;28;20445;-79
2021/11/08 05:34:18;;;;;;;8.80;4.80;;;;;;;3.53;100.00;152271.88;5036020;28;20471;-79
2021/11/08 05:36:53;;;;;;;7.37;4.93;;;;;;;3.55;100.00;152275.72;5036007;28;20439;-79
2021/11/08 05:39:28;;;;;;;10.07;5.43;;;;;;;3.55;100.00;152275.72;5054302;28;20446;-79
2021/11/08 05:42:04;;;;;;;6.30;5.70;;;;;;;3.55;100.00;152277.03;5053482;28;20446;-79
2021/11/08 05:44:41;;;;;;;7.33;5.30;;;;;;;3.53;100.00;152271.88;5036465;28;20466;-79
2021/11/08 05:47:17;;;;;;;8.50;5.37;;;;;;;3.52;100.00;152269.28;5054139;28;20423;-79
2021/11/08 05:49:54;;;;;;;13.63;5.60;;;;;;;3.54;100.00;152273.19;5035850;28;20540;-79
2021/11/08 05:52:30;;;;;;;8.73;5.87;;;;;;;3.59;100.00;152287.34;5035863;28;20530;-79
2021/11/08 05:55:10;;;;;;;8.40;5.40;;;;;;;3.64;100.00;152298.91;5035683;28;20469;-79
2021/11/08 05:57:51;;;;;;;8.83;5.90;;;;;;;3.65;100.00;152302.75;5035155;28;20439;-79
2021/11/08 06:49:42;;;;;;;8.70;6.03;;;;;;;3.80;100.00;152338.81;5033653;28;20533;-79
2021/11/08 06:52:19;;;;;;;6.67;4.77;;;;;;;3.85;100.00;152351.69;5018391;28;20730;-79
2021/11/08 06:54:55;;;;;;;9.40;6.10;;;;;;;3.93;100.00;152372.28;5052416;28;20489;-79
2021/11/08 06:57:44;;;;;;;12.73;5.60;;;;;;;4.06;100.00;152405.78;5034125;28;20940;-79
2021/11/08 07:00:23;;;;;;;9.30;5.73;;;;;;;4.21;100.00;152445.69;5034809;28;20880;-79
2021/11/08 07:03:00;;;;;;;8.77;5.40;;;;;;;4.41;100.00;152495.94;5033726;28;20857;-80
2021/11/08 07:05:36;;;;;;;11.43;6.13;;;;;;;4.61;100.00;152547.47;5051336;28;20462;-79
2021/11/08 07:08:12;;;;;;;9.33;5.83;;;;;;;4.80;100.00;152596.44;5050813;28;20533;-80
2021/11/08 07:10:49;;;;;;;12.00;7.10;;;;;;;5.00;100.00;152646.72;5030347;28;20458;-80
2021/11/08 07:13:26;;;;;;;13.80;6.60;;;;;;;5.18;100.00;152693.09;5034375;28;20706;-80
2021/11/08 07:16:02;;;;;;;10.33;6.60;;;;;;;5.28;100.00;152717.59;5024760;28;20494;-80
2021/11/08 07:18:40;;;;;;;6.80;6.00;;;;;;;5.35;100.00;152736.91;5032529;28;20443;-80
2021/11/08 07:21:15;;;;;;;8.33;6.03;;;;;;;5.45;100.00;152761.44;5033306;28;20454;-80
2021/11/08 07:23:51;;;;;;;8.00;5.40;;;;;;;5.57;100.00;152792.38;5032708;28;20925;-79
2021/11/08 07:26:27;;;;;;;8.37;5.53;;;;;;;5.75;100.00;152837.47;5051973;28;20937;-79
2021/11/08 07:29:04;;;;;;;7.63;5.20;;;;;;;5.87;100.00;152869.81;5051817;28;20452;-79
2021/11/08 07:31:40;;;;;;;8.00;5.53;;;;;;;5.97;100.00;152894.28;5066585;28;20442;-80
2021/11/08 07:34:16;;;;;;;7.53;5.43;;;;;;;6.02;100.00;152907.19;5032932;28;20553;-80
2021/11/08 07:36:53;;;;;;;6.60;5.63;;;;;;;6.11;100.00;152930.44;5033995;28;20519;-80
2021/11/08 07:39:29;;;;;;;8.53;4.53;;;;;;;6.19;100.00;152949.78;5033370;28;20529;-80
2021/11/08 07:42:05;;;;;;;7.23;5.17;;;;;;;6.31;100.00;152980.72;5033877;28;20576;-80
2021/11/08 07:44:44;;;;;;;7.23;4.80;;;;;;;6.43;100.00;153011.72;5033695;28;20957;-80
2021/11/08 07:47:23;;;;;;;5.90;4.63;;;;;;;6.47;100.00;153022.00;5042816;28;20459;-79
2021/11/08 07:50:01;;;;;;;8.30;5.23;;;;;;;6.50;100.00;153031.06;5056271;28;20461;-80
2021/11/08 07:52:37;;;;;;;9.10;5.20;;;;;;;6.48;100.00;153024.63;5035453;28;20451;-80
2021/11/08 07:55:13;;;;;;;6.63;4.63;;;;;;;6.50;100.00;153031.06;5045607;28;20478;-79
2021/11/08 07:57:48;;;;;;;8.10;4.73;;;;;;;6.72;100.00;153086.56;5036196;28;20512;-80
2021/11/08 08:00:25;;;;;;;9.60;5.23;;;;;;;6.76;100.00;153096.88;5037324;28;20461;-80
2021/11/08 08:03:01;;;;;;;9.20;5.10;;;;;;;6.71;100.00;153083.97;5049662;28;20454;-80
2021/11/08 08:05:37;;;;;;;8.33;4.97;;;;;;;6.69;100.00;153078.81;5054022;28;20542;-80
2021/11/08 08:08:14;;;;;;;10.27;6.23;;;;;;;6.68;100.00;153076.22;5037272;28;20446;-80
2021/11/08 08:10:51;;;;;;;8.80;5.20;;;;;;;6.74;100.00;153091.72;5060157;28;20558;-80
2021/11/08 08:13:28;;;;;;;8.00;5.70;;;;;;;6.72;100.00;153087.81;5048735;28;20902;-80
2021/11/08 08:16:08;;;;;;;7.47;5.90;;;;;;;6.73;100.00;153089.13;5020768;28;20962;-80
2021/11/08 08:18:45;;;;;;;7.50;5.40;;;;;;;6.71;100.00;153083.97;5018089;28;20783;-80
2021/11/08 08:21:22;;;;;;;7.80;6.00;;;;;;;6.75;100.00;153095.56;5046665;28;20482;-80
2021/11/08 08:24:02;;;;;;;18.10;6.73;;;;;;;6.78;100.00;153102.03;5036911;28;20528;-80
2021/11/08 08:26:41;;;;;;;7.30;5.13;;;;;;;6.81;100.00;153109.78;5055597;28;20443;-80
2021/11/08 08:29:24;;;;;;;10.67;5.37;;;;;;;6.87;100.00;153125.28;5054758;28;20445;-80
2021/11/08 08:32:02;;;;;;;10.00;5.60;;;;;;;6.89;100.00;153129.13;5028033;28;20446;-80
2021/11/08 08:34:37;;;;;;;9.70;5.30;;;;;;;6.89;100.00;153130.44;5036859;28;20474;-80
2021/11/08 08:37:13;;;;;;;13.73;4.47;;;;;;;6.87;100.00;153125.28;5038514;28;20902;-80
2021/11/08 08:39:52;;;;;;;6.57;4.93;;;;;;;6.89;100.00;153129.13;5034648;28;20868;-80
2021/11/08 08:42:28;;;;;;;6.80;5.00;;;;;;;6.91;100.00;153135.59;5051265;28;20451;-80
2021/11/08 08:45:06;;;;;;;8.73;5.20;;;;;;;6.93;100.00;153139.47;5024336;28;20450;-80
2021/11/08 08:47:44;;;;;;;8.00;6.10;;;;;;;6.98;100.00;153153.69;5051981;28;20439;-80
2021/11/08 08:50:20;;;;;;;10.47;5.80;;;;;;;7.19;100.00;153206.63;5052979;28;20450;-80
2021/11/08 08:52:56;;;;;;;10.43;5.93;;;;;;;7.17;100.00;153201.47;5035458;28;20451;-80
2021/11/08 08:55:32;;;;;;;11.57;6.60;;;;;;;7.09;100.00;153182.09;5048123;28;20494;-80
2021/11/08 08:58:07;;;;;;;12.00;5.63;;;;;;;7.11;100.00;153187.25;5041793;28;20447;-79
2021/11/08 09:00:47;;;;;;;9.57;6.77;;;;;;;7.14;100.00;153193.72;5035711;28;20453;-79
2021/11/08 09:03:24;;;;;;;12.10;4.13;;;;;;;7.15;99.44;153197.56;5053829;28;20450;-79
2021/11/08 09:06:00;;;;;;;9.73;4.57;;;;;;;7.15;98.74;153196.25;5053855;28;20820;-79
2021/11/08 09:08:38;;;;;;;9.30;4.80;;;;;;;6.97;98.33;153151.09;5048309;28;20439;-79
2021/11/08 09:11:14;;;;;;;6.40;4.67;;;;;;;6.92;99.70;153136.88;5031797;28;20443;-80
2021/11/08 09:13:50;;;;;;;6.90;4.83;;;;;;;6.78;100.00;153102.03;5046966;28;20447;-80
2021/11/08 09:16:27;;;;;;;8.53;4.53;;;;;;;6.75;100.00;153095.56;5035163;28;20839;-79
2021/11/08 09:19:06;;;;;;;10.27;5.93;;;;;;;6.77;100.00;153099.47;5032318;28;20446;-79
2021/11/08 09:21:41;;;;;;;9.77;6.70;;;;;;;6.79;100.00;153104.63;5016518;28;20840;-79
2021/11/08 09:24:18;;;;;;;11.57;6.67;;;;;;;6.77;100.00;153099.47;5052364;28;20451;-79
2021/11/08 09:26:54;;;;;;;12.67;7.00;;;;;;;6.78;100.00;153102.03;5044860;28;20450;-79
2021/11/08 09:29:29;;;;;;;9.43;7.40;;;;;;;6.78;100.00;153100.78;5032203;28;20443;-79
2021/11/08 09:32:08;;;;;;;9.87;6.33;;;;;;;6.79;100.00;153104.63;5033045;28;20449;-80
2021/11/08 09:34:47;;;;;;;11.80;8.00;;;;;;;6.90;100.00;153131.72;5044255;28;20886;-79
2021/11/08 09:37:25;;;;;;;16.97;9.43;;;;;;;7.09;100.00;153182.09;5058826;28;20446;-79
2021/11/08 09:40:01;;;;;;;18.30;10.33;;;;;;;7.12;100.00;153189.81;5034090;28;20446;-79
2021/11/08 09:42:38;;;;;;;11.27;8.77;;;;;;;7.11;100.00;153187.25;5057963;28;20450;-79
2021/11/08 09:45:14;;;;;;;14.97;9.50;;;;;;;7.13;100.00;153192.41;5051795;28;20443;-80
2021/11/08 09:47:53;;;;;;;15.37;9.90;;;;;;;7.21;100.00;153211.78;5036168;28;20470;-79
2021/11/08 09:50:32;;;;;;;10.70;5.97;;;;;;;7.05;100.00;153171.75;5034335;28;20519;-79
2021/11/08 09:53:08;;;;;;;7.50;5.87;;;;;;;7.01;100.00;153161.44;5049453;28;20443;-79
2021/11/08 09:55:47;;;;;;;12.37;6.70;;;;;;;6.96;100.00;153148.53;5015683;28;20562;-80
2021/11/08 09:58:24;;;;;;;13.60;8.80;;;;;;;7.01;100.00;153160.13;5047143;28;20855;-79
2021/11/08 10:01:01;;;;;;;17.77;9.57;;;;;;;7.02;100.00;153162.69;5048986;28;20454;-79
2021/11/08 10:03:37;;;;;;;14.33;10.37;;;;;;;7.01;100.00;153161.44;5019945;28;20517;-79
2021/11/08 10:06:14;;;;;;;13.83;8.90;;;;;;;7.03;100.00;153166.59;5047285;28;20502;-79
2021/11/08 10:08:51;;;;;;;16.40;10.23;;;;;;;7.15;100.00;153197.56;5032639;28;20478;-79
2021/11/08 10:11:27;;;;;;;13.23;9.03;;;;;;;7.13;100.00;153191.09;5052712;28;20481;-79
2021/11/08 10:14:04;;;;;;;12.27;9.20;;;;;;;7.15;100.00;153197.56;5034774;28;20459;-79
2021/11/08 10:16:41;;;;;;;15.50;8.63;;;;;;;7.18;100.00;153205.31;5034976;28;20470;-79
2021/11/08 10:19:22;;;;;;;14.20;7.50;;;;;;;7.16;99.56;153198.84;5029460;28;20454;-79
2021/11/08 10:21:59;;;;;;;15.80;7.93;;;;;;;7.29;99.86;153232.44;5032063;28;20450;-79
2021/11/08 10:24:39;;;;;;;10.03;7.57;;;;;;;7.28;100.00;153229.88;5052723;28;20502;-79
2021/11/08 10:27:18;;;;;;;14.40;8.33;;;;;;;7.24;98.81;153220.81;5061527;28;20443;-79
2021/11/08 10:29:55;;;;;;;12.90;7.83;;;;;;;7.20;99.91;153210.47;5033170;28;20508;-79
2021/11/08 10:32:34;;;;;;;11.60;8.57;;;;;;;7.19;100.00;153207.91;5043706;28;20447;-80
2021/11/08 10:35:10;;;;;;;11.60;7.70;;;;;;;7.16;100.00;153200.16;5039737;28;20462;-79
2021/11/08 10:37:47;;;;;;;15.70;8.60;;;;;;;7.23;99.75;153218.22;5034287;28;20442;-80
2021/11/08 10:40:29;;;;;;;11.60;8.43;;;;;;;7.41;100.00;153262.16;5067522;28;20438;-80
2021/11/08 10:43:08;;;;;;;12.60;7.87;;;;;;;7.38;98.67;153254.41;5034309;28;20442;-80
2021/11/08 10:45:48;;;;;;;12.00;7.80;;;;;;;7.36;97.67;153251.78;5033666;28;20828;-80
2021/11/08 10:48:30;;;;;;;12.50;8.90;;;;;;;7.27;97.43;153228.56;5032830;28;20462;-80
2021/11/08 10:51:07;;;;;;;11.87;7.90;;;;;;;7.12;96.94;153188.56;5026554;28;20454;-79
2021/11/08 10:53:46;;;;;;;20.43;9.40;;;;;;;7.21;100.00;153213.06;5034653;28;20443;-79
2021/11/08 10:56:25;;;;;;;12.87;9.40;;;;;;;7.36;100.00;153251.78;5033286;28;20466;-80
2021/11/08 10:59:08;;;;;;;13.57;9.83;;;;;;;7.42;100.00;153264.69;5033410;28;20443;-79
2021/11/08 11:01:45;;;;;;;15.20;10.07;;;;;;;7.33;100.00;153244.03;5048295;28;20840;-79
2021/11/08 11:04:30;;;;;;;16.00;10.20;;;;;;;7.40;100.00;153260.84;5067011;28;20426;-80
2021/11/08 11:07:06;;;;;;;16.67;10.00;;;;;;;7.33;100.00;153244.03;5033733;28;20463;-80
2021/11/08 11:09:43;;;;;;;17.13;10.23;;;;;;;7.26;100.00;153224.66;5033906;28;20814;-80
2021/11/08 11:12:25;;;;;;;16.30;10.40;;;;;;;7.28;100.00;153231.13;5044422;28;20435;-79
2021/11/08 11:15:06;;;;;;;16.00;10.60;;;;;;;7.27;100.00;153228.56;5032352;28;20492;-79
2021/11/08 11:17:44;;;;;;;13.70;9.37;;;;;;;7.28;100.00;153229.88;5032316;28;20448;-79
2021/11/08 11:20:22;;;;;;;13.67;9.37;;;;;;;7.21;99.00;153213.06;5023549;28;20981;-79
2021/11/08 11:23:09;;;;;;;14.17;9.00;;;;;;;7.29;98.66;153233.72;5055539;28;20431;-79
2021/11/08 11:25:50;;;;;;;9.90;7.87;;;;;;;7.30;100.00;153236.34;5058599;28;20446;-79
2021/11/08 11:28:33;;;;;;;12.30;7.30;;;;;;;7.29;94.62;153233.72;5039437;28;20921;-79
2021/11/08 11:31:12;;;;;;;11.93;7.63;;;;;;;7.22;96.58;153215.66;5040074;28;20439;-79
2021/11/08 11:33:49;;;;;;;12.10;8.40;;;;;;;7.27;100.00;153227.28;5058947;28;20450;-80
2021/11/08 11:36:29;;;;;;;10.37;7.43;;;;;;;7.29;98.20;153232.44;5058579;28;20478;-79
2021/11/08 11:39:07;;;;;;;13.73;7.97;;;;;;;7.43;94.21;153267.31;5035366;28;20458;-79
2021/11/08 11:41:52;;;;;;;10.80;5.77;;;;;;;7.55;95.17;153299.59;5055856;28;20434;-79
2021/11/08 11:44:28;;;;;;;11.43;7.10;;;;;;;7.62;94.06;153316.41;5040247;28;20442;-80
2021/11/08 11:47:13;;;;;;;10.13;6.50;;;;;;;7.57;93.34;153304.72;5041264;28;20419;-79
2021/11/08 11:49:48;;;;;;;11.83;6.23;;;;;;;7.53;93.31;153293.13;5042253;28;20454;-79
2021/11/08 11:52:25;;;;;;;10.57;6.90;;;;;;;7.49;92.87;153284.13;5056408;28;20438;-80
2021/11/08 11:55:01;;;;;;;8.50;6.10;;;;;;;7.41;93.83;153262.16;5039490;28;20546;-80
2021/11/08 11:57:38;;;;;;;11.50;7.63;;;;;;;7.48;94.74;153281.50;5067024;28;20437;-80
2021/11/08 12:00:15;;;;;;;9.27;6.23;;;;;;;7.55;95.00;153298.28;5058577;28;20447;-80
2021/11/08 12:02:53;;;;;;;17.43;6.97;;;;;;;7.70;94.43;153337.06;5040768;28;20446;-80
2021/11/08 12:05:29;;;;;;;9.60;5.83;;;;;;;7.79;93.58;153361.59;5039502;28;20504;-79
2021/11/08 12:08:08;;;;;;;13.27;6.77;;;;;;;7.72;93.25;153342.22;5024639;28;20438;-79
2021/11/08 12:10:46;;;;;;;10.43;6.20;;;;;;;7.59;93.42;153309.94;5039620;28;20450;-79
2021/11/08 12:13:26;;;;;;;9.30;5.57;;;;;;;7.72;93.03;153342.22;5056080;28;20446;-79
2021/11/08 12:16:12;;;;;;;13.73;5.73;;;;;;;7.85;93.01;153375.81;5048214;28;20504;-79
2021/11/08 12:18:48;;;;;;;9.40;4.80;;;;;;;7.75;91.59;153351.28;5037608;28;20434;-79
2021/11/08 12:21:26;;;;;;;13.83;4.70;;;;;;;7.58;90.18;153307.34;5040168;28;21184;-80
2021/11/08 12:24:14;;;;;;;9.33;5.10;;;;;;;7.66;89.66;153326.72;5055676;28;20453;-80
2021/11/08 12:27:01;;;;;;;8.33;5.10;;;;;;;7.53;90.99;153293.13;5037134;28;20439;-80
2021/11/08 12:29:49;;;;;;;7.93;3.90;;;;;;;7.51;90.68;153287.97;5029941;28;20462;-80
2021/11/08 12:32:25;;;;;;;7.03;5.00;;;;;;;7.46;90.46;153275.06;5036319;28;20752;-80
2021/11/08 12:35:05;;;;;;;7.43;4.87;;;;;;;7.49;91.28;153284.13;5054717;28;20808;-80
2021/11/08 12:37:40;;;;;;;11.40;5.60;;;;;;;7.52;91.21;153290.56;5055351;28;20842;-80
2021/11/08 12:40:18;;;;;;;9.33;4.27;;;;;;;7.66;90.52;153328.00;5036712;28;20454;-80
2021/11/08 12:42:55;;;;;;;9.30;4.97;;;;;;;7.62;89.69;153317.69;5054435;28;20415;-80
2021/11/08 12:45:39;;;;;;;10.40;4.47;;;;;;;7.66;90.79;153326.72;5035201;28;20882;-80
2021/11/08 12:48:17;;;;;;;8.20;4.20;;;;;;;7.70;89.46;153338.38;5055014;28;20782;-80
2021/11/08 12:50:56;;;;;;;12.60;5.03;;;;;;;7.68;89.76;153331.84;5016763;28;20451;-80
2021/11/08 12:53:34;;;;;;;6.23;4.00;;;;;;;7.66;89.54;153326.72;5045380;28;20940;-80
2021/11/08 12:56:21;;;;;;;10.03;4.07;;;;;;;7.67;89.48;153330.59;5036244;28;20466;-81
2021/11/08 12:59:00;;;;;;;8.97;4.60;;;;;;;7.73;88.70;153346.06;5036398;28;20481;-80
2021/11/08 13:01:41;;;;;;;12.27;6.30;;;;;;;7.70;88.32;153338.38;5051843;28;20454;-80
2021/11/08 13:04:18;;;;;;;7.33;4.70;;;;;;;7.82;86.62;153368.03;5050196;28;20447;-80
2021/11/08 13:07:09;;;;;;;9.40;4.50;;;;;;;7.85;84.78;153377.09;5054459;28;20905;-79
2021/11/08 13:09:48;;;;;;;11.63;4.03;;;;;;;7.76;84.56;153353.84;5054173;28;20434;-79
2021/11/08 13:12:31;;;;;;;5.30;3.67;;;;;;;7.70;86.41;153337.06;5035586;28;20504;-80
2021/11/08 13:15:10;;;;;;;7.80;4.47;;;;;;;7.76;85.69;153352.53;5035807;28;20498;-80
2021/11/08 13:17:48;;;;;;;8.93;3.60;;;;;;;7.79;85.91;153360.28;5052919;28;20463;-80
2021/11/08 13:20:25;;;;;;;7.33;4.03;;;;;;;7.80;85.15;153362.88;5065406;28;20447;-80
2021/11/08 13:23:05;;;;;;;7.83;3.60;;;;;;;7.70;85.41;153337.06;5032789;28;20479;-80
2021/11/08 13:25:43;;;;;;;7.70;3.53;;;;;;;7.69;85.60;153334.47;5019401;28;20457;-80
2021/11/08 13:28:21;;;;;;;6.63;3.90;;;;;;;7.62;85.97;153317.69;5063169;28;20472;-79
2021/11/08 13:30:59;;;;;;;8.60;3.63;;;;;;;7.61;85.89;153313.78;5045254;28;20450;-80
2021/11/08 13:33:40;;;;;;;12.53;5.03;;;;;;;7.65;86.42;153324.16;5067932;28;20516;-79
2021/11/08 13:36:15;;;;;;;10.70;3.60;;;;;;;7.67;85.19;153329.31;5036384;28;20478;-80
2021/11/08 13:38:53;;;;;;;7.33;3.53;;;;;;;7.63;87.19;153320.25;5052613;28;20916;-80